Latest Weather Observations for Newman Airport

IDW60801

Issued at 5:43 pm WST Saturday 22 February 2020 (issued every 10 minutes, with the page automatically refreshed every 10 minutes)

About weather observations | Map of weather stations | Latest weather observations for WA | Other Formats
Station Details ID: 007176 Name: NEWMAN AERO Lat: -23.42 Lon: 119.80 Height: 524.0 m
Data from the previous 72 hours. | See also: Recent months at Newman Airport
Date/Time
WST
Temp
°C
App
Temp
°C
Dew
Point
°C
Rel
Hum
%
Delta-T
°C
Wind Press
QNH
hPa
Press
MSL
hPa
Rain since
9am
mm
Dir  Spd
km/h
Gust
km/h
Spd
kts
Gust
kts
22/05:30pm 35.5 33.2 15.8 31 12.7 NNW 22 33 12 18 1009.6 1005.2 0.0
22/05:00pm 35.8 32.9 16.0 30 12.8 N 26 39 14 21 1009.5 1005.1 0.0
22/04:30pm 36.3 33.5 15.4 28 13.4 NNW 24 35 13 19 1009.4 1005.0 0.0
22/04:00pm 36.0 32.4 14.1 27 13.8 N 26 39 14 21 1009.6 1005.2 0.0
22/03:30pm 37.0 33.7 14.9 27 14.1 NNW 26 41 14 22 1009.8 1005.4 0.0
22/03:00pm 36.8 34.0 15.3 28 13.8 NNW 24 39 13 21 1010.2 1005.8 0.0
22/02:30pm 36.3 33.6 16.5 31 12.9 NNW 26 39 14 21 1010.5 1006.1 0.0
22/02:00pm 36.2 33.4 15.3 28 13.4 NNW 24 35 13 19 1011.0 1006.7 0.0
22/01:30pm 35.9 33.6 16.6 31 12.6 NNW 24 35 13 19 1011.6 1007.2 0.0
22/01:00pm 36.1 34.0 16.3 31 12.9 NNW 22 32 12 17 1012.0 1007.6 0.0
22/12:30pm 34.9 33.2 16.2 32 12.1 NNW 20 32 11 17 1012.4 1008.0 0.0
22/12:00pm 34.8 33.2 16.6 33 11.8 N 20 35 11 19 1012.9 1008.6 0.0
22/11:30am 34.1 32.1 16.5 35 11.4 N 22 35 12 19 1013.4 1009.0 0.0
22/11:00am 33.9 32.4 16.7 35 11.1 N 20 32 11 17 1013.7 1009.3 0.0
22/10:30am 33.0 32.0 18.0 41 9.9 NNW 20 26 11 14 1014.0 1009.6 0.0
22/10:00am 31.9 31.9 18.1 43 9.1 NNW 15 26 8 14 1014.2 1009.8 0.0
22/09:30am 31.7 32.2 19.3 47 8.3 N 15 28 8 15 1014.3 1009.9 0.0
22/09:00am 30.3 31.2 20.0 54 6.9 N 15 20 8 11 1014.5 1010.2 0.0
22/08:30am 29.5 31.3 20.4 58 6.1 NNW 11 15 6 8 1014.3 1009.9 0.0
22/08:00am 28.2 31.0 21.5 67 4.6 N 9 19 5 10 1014.2 1009.8 0.0
22/07:30am 27.8 31.1 21.8 70 4.1 NNW 7 11 4 6 1014.0 1009.6 0.0
22/07:00am 27.1 30.4 22.5 76 3.2 NNE 9 11 5 6 1014.0 1009.6 0.0
22/06:30am 26.2 29.4 22.3 79 2.7 NNE 9 11 5 6 1013.8 1009.4 0.0
22/06:00am 26.8 30.0 21.3 72 3.7 NNW 6 7 3 4 1013.6 1009.2 0.0
22/05:30am 27.1 29.7 21.2 70 4.0 NNW 9 13 5 7 1013.1 1008.8 0.0
22/05:00am 27.5 30.5 21.3 69 4.2 NNW 7 13 4 7 1012.7 1008.4 0.0
22/04:30am 27.6 30.3 21.4 69 4.2 N 9 13 5 7 1012.5 1008.1 0.0
22/04:00am 27.8 29.7 21.3 67 4.4 NNW 13 19 7 10 1012.2 1007.8 0.0
22/03:30am 28.1 30.4 20.6 63 5.0 NNW 9 15 5 8 1012.2 1007.8 0.0
22/03:00am 28.5 29.4 20.0 60 5.7 NW 15 19 8 10 1012.2 1007.8 0.0
22/02:30am 28.7 29.1 19.9 59 5.9 NNW 17 26 9 14 1012.3 1007.9 0.0
22/02:00am 28.9 29.8 19.2 55 6.4 NNW 13 17 7 9 1012.5 1008.1 0.0
22/01:30am 29.4 29.7 18.8 53 7.0 NNW 15 20 8 11 1012.6 1008.2 0.0
22/01:00am 29.9 30.1 17.7 48 7.9 NNW 13 17 7 9 1012.6 1008.2 0.0
22/12:30am 30.4 30.7 17.1 44 8.6 N 11 17 6 9 1012.8 1008.5 0.0
22/12:00am 30.0 31.5 17.5 47 8.1 NNW 6 9 3 5 1012.9 1008.6 0.0
 
Date/Time
WST
Temp
°C
App
Temp
°C
Dew
Point
°C
Rel
Hum
%
Delta-T
°C
Wind Press
QNH
hPa
Press
MSL
hPa
Rain since
9am
mm
Dir  Spd
km/h
Gust
km/h
Spd
kts
Gust
kts
21/11:30pm 30.1 31.6 17.5 46 8.2 NNW 6 7 3 4 1012.9 1008.6 0.0
21/11:00pm 30.4 31.3 17.5 46 8.4 NNW 9 15 5 8 1012.9 1008.6 0.0
21/10:30pm 31.0 30.9 17.0 43 9.0 NNW 13 19 7 10 1012.9 1008.6 0.0
21/10:00pm 31.6 32.3 16.0 39 9.9 NE 7 9 4 5 1012.7 1008.4 0.0
21/09:30pm 32.1 32.8 15.6 37 10.5 NNE 6 7 3 4 1013.0 1008.7 0.0
21/09:00pm 32.5 32.6 15.5 36 10.8 NNE 9 11 5 6 1012.7 1008.4 0.0
21/08:30pm 32.8 33.1 14.9 34 11.3 N 7 9 4 5 1012.5 1008.1 0.0
21/08:00pm 33.0 33.2 14.6 33 11.6 N 7 9 4 5 1012.2 1007.8 0.0
21/07:30pm 33.2 33.4 14.3 32 11.8 N 6 9 3 5 1011.8 1007.4 0.0
21/07:00pm 33.6 33.0 13.6 29 12.4 N 9 13 5 7 1011.2 1006.9 0.0
21/06:30pm 34.0 32.3 13.5 29 12.7 N 15 20 8 11 1010.9 1006.6 0.0
21/06:00pm 34.9 33.4 13.1 27 13.5 N 13 20 7 11 1010.5 1006.1 0.0
21/05:30pm 35.3 33.9 13.5 27 13.6 N 13 19 7 10 1010.1 1005.7 0.0
21/05:00pm 35.2 32.8 12.8 26 13.8 NNE 17 22 9 12 1010.0 1005.6 0.0
21/04:30pm 34.7 33.6 13.0 27 13.4 NNE 11 19 6 10 1010.0 1005.6 0.0
21/04:00pm 35.0 33.7 12.6 26 13.8 N 11 17 6 9 1010.2 1005.8 0.0
21/03:30pm 35.3 32.8 12.3 25 14.1 NNE 17 24 9 13 1010.3 1005.9 0.0
21/03:00pm 35.8 33.8 12.7 25 14.3 NNE 15 24 8 13 1010.5 1006.1 0.0
21/02:30pm 36.0 33.1 12.3 24 14.5 NE 19 30 10 16 1010.7 1006.3 0.0
21/02:00pm 35.0 33.0 12.6 26 13.8 NNE 15 28 8 15 1010.8 1006.4 0.0
21/01:30pm 35.2 32.3 12.2 25 14.0 ENE 19 28 10 15 1011.2 1006.9 0.0
21/01:00pm 34.8 32.0 11.2 24 14.2 ENE 17 30 9 16 1011.7 1007.3 0.0
21/12:30pm 34.2 31.2 10.7 24 14.0 ENE 17 26 9 14 1012.1 1007.7 0.0
21/12:00pm 33.2 30.2 10.5 25 13.4 NE 17 28 9 15 1012.4 1008.0 0.0
21/11:30am 33.2 29.8 10.5 25 13.4 ENE 19 30 10 16 1012.8 1008.5 0.0
21/11:00am 31.9 28.3 10.0 26 12.8 E 19 28 10 15 1013.0 1008.7 0.0
21/10:30am 31.8 27.5 9.3 25 13.0 E 22 32 12 17 1013.2 1008.9 0.0
21/10:00am 30.7 27.0 10.1 28 12.0 E 20 30 11 16 1013.7 1009.3 0.0
21/09:30am 28.9 25.8 11.5 34 10.3 ESE 19 26 10 14 1013.8 1009.4 0.0
21/09:00am 27.7 25.4 12.9 40 8.9 ESE 17 22 9 12 1014.3 1009.9 0.2
21/08:30am 27.1 25.6 14.1 44 7.9 ESE 15 24 8 13 1014.1 1009.7 0.2
21/08:00am 26.6 24.9 14.7 48 7.3 ESE 17 22 9 12 1013.9 1009.5 0.2
21/07:30am 25.3 25.7 18.2 64 4.6 SE 13 15 7 8 1014.0 1009.6 0.2
21/07:00am 24.2 25.7 18.8 72 3.5 SE 9 13 5 7 1014.0 1009.6 0.2
21/06:30am 23.8 25.6 19.5 77 2.8 SE 9 13 5 7 1014.2 1009.8 0.2
21/06:00am 23.6 25.2 19.1 76 2.9 E 9 13 5 7 1014.0 1009.6 0.2
21/05:30am 24.0 25.4 18.6 72 3.5 ENE 9 13 5 7 1014.2 1009.8 0.2
21/05:00am 24.6 25.2 18.5 69 3.9 NNE 13 22 7 12 1014.5 1010.2 0.0
21/04:30am 24.8 25.4 17.8 65 4.5 N 11 17 6 9 1014.1 1009.7 0.0
21/04:00am 25.0 25.4 16.4 59 5.4 NE 9 11 5 6 1014.2 1009.8 0.0
21/03:30am 24.8 25.3 16.5 60 5.2 NNE 9 11 5 6 1014.1 1009.7 0.0
21/03:00am 24.9 24.4 15.8 57 5.7 E 13 17 7 9 1013.9 1009.5 0.0
21/02:30am 26.5 24.4 13.6 45 7.8 ENE 17 24 9 13 1014.2 1009.8 0.0
21/02:00am 27.5 25.4 11.1 36 9.5 ESE 13 20 7 11 1014.2 1009.8 0.0
21/01:30am 27.5 25.4 11.1 36 9.5 SE 13 19 7 10 1013.7 1009.3 0.0
21/01:00am 27.6 25.6 11.6 37 9.4 SSE 13 17 7 9 1013.7 1009.3 0.0
21/12:30am 27.8 25.3 10.9 35 9.8 SSE 15 20 8 11 1013.6 1009.2 0.0
21/12:00am 27.9 25.9 11.5 36 9.6 SSE 13 17 7 9 1013.9 1009.5 0.0
 
Date/Time
WST
Temp
°C
App
Temp
°C
Dew
Point
°C
Rel
Hum
%
Delta-T
°C
Wind Press
QNH
hPa
Press
MSL
hPa
Rain since
9am
mm
Dir  Spd
km/h
Gust
km/h
Spd
kts
Gust
kts
20/11:30pm 28.2 25.0 11.3 35 9.9 SSE 19 26 10 14 1013.9 1009.5 0.0
20/11:00pm 28.4 25.2 11.9 36 9.8 SSE 20 28 11 15 1013.6 1009.2 0.0
20/10:30pm 28.6 25.8 12.5 37 9.6 SE 19 26 10 14 1013.2 1008.9 0.0
20/10:00pm 28.9 24.3 12.3 36 9.9 SSE 28 39 15 21 1013.1 1008.8 0.0
20/09:30pm 30.3 26.9 11.3 31 11.2 SE 20 30 11 16 1012.9 1008.6 0.0
20/09:00pm 30.4 28.0 11.4 31 11.3 SE 15 20 8 11 1012.6 1008.2 0.0
20/08:30pm 30.5 27.2 11.5 31 11.3 SSE 20 30 11 16 1012.1 1007.7 0.0
20/08:00pm 30.9 27.7 11.8 31 11.4 SSE 20 28 11 15 1011.0 1006.7 0.0
20/07:30pm 31.7 28.4 11.0 28 12.2 SSE 19 24 10 13 1010.1 1005.7 0.0
20/07:00pm 31.9 29.0 11.1 28 12.4 SSE 17 22 9 12 1010.0 1005.6 0.0
20/06:30pm 32.2 29.8 11.4 28 12.4 S 15 24 8 13 1009.7 1005.3 0.0
20/06:00pm 32.6 29.3 11.7 28 12.6 S 20 24 11 13 1009.5 1005.1 0.0
20/05:30pm 33.7 30.6 10.3 24 13.8 SE 17 26 9 14 1009.0 1004.6 0.0
20/05:00pm 34.0 30.4 10.6 24 13.9 SSE 20 26 11 14 1008.8 1004.4 0.0
20/04:30pm 34.6 31.9 10.4 23 14.4 SE 15 26 8 14 1008.7 1004.3 0.0
20/04:00pm 34.9 31.9 10.7 23 14.5 SE 17 26 9 14 1009.0 1004.6 0.0
20/03:30pm 34.9 32.5 10.0 22 14.7 SSE 13 20 7 11 1009.3 1004.9 0.0
20/03:00pm 34.9 31.7 10.0 22 14.7 ESE 17 22 9 12 1009.6 1005.2 0.0
20/02:30pm 34.6 31.2 10.4 23 14.4 E 19 30 10 16 1010.0 1005.6 0.0
20/02:00pm 34.4 31.3 10.3 23 14.3 ESE 17 28 9 15 1010.4 1006.0 0.0
20/01:30pm 33.7 31.0 10.3 24 13.8 ESE 15 22 8 12 1010.6 1006.2 0.0
20/01:00pm 32.8 29.5 9.6 24 13.5 SE 17 24 9 13 1011.0 1006.7 0.0
20/12:30pm 33.4 29.9 10.1 24 13.7 SE 19 24 10 13 1011.4 1007.0 0.0
20/12:00pm 32.6 29.0 10.0 25 13.2 SE 19 26 10 14 1011.7 1007.3 0.0
20/11:30am 31.3 28.5 10.1 27 12.3 ESE 15 20 8 11 1012.0 1007.6 0.0
20/11:00am 30.9 27.9 10.8 29 11.8 SE 17 22 9 12 1012.1 1007.7 0.0
20/10:30am 30.3 27.1 11.3 31 11.2 SSE 19 28 10 15 1012.5 1008.1 0.0
20/10:00am 29.8 27.0 11.3 32 10.9 SSE 17 24 9 13 1012.8 1008.5 0.0
20/09:30am 30.0 27.2 11.5 32 11.0 SSE 17 28 9 15 1012.9 1008.6 0.0
20/09:00am 29.8 27.1 11.8 33 10.7 S 17 24 9 13 1013.1 1008.8 0.0
20/08:30am 29.2 27.2 13.8 39 9.4 SSE 17 22 9 12 1013.1 1008.8 0.0
20/08:00am 28.4 27.9 16.0 47 7.8 SSW 13 19 7 10 1013.4 1009.0 0.0
20/07:30am 27.3 27.6 18.0 56 6.0 S 13 19 7 10 1013.1 1008.8 0.0
20/07:00am 25.2 25.4 18.6 67 4.3 SW 15 20 8 11 1013.2 1008.9 0.0
20/06:30am 24.7 24.9 18.6 69 3.9 SW 15 20 8 11 1012.8 1008.5 0.0
20/06:00am 24.5 24.0 18.7 70 3.8 WSW 19 28 10 15 1012.6 1008.2 0.0
20/05:30am 24.7 25.1 18.9 70 3.8 SW 15 22 8 12 1012.4 1008.0 0.0
20/05:00am 24.9 25.2 18.8 69 4.0 WSW 15 20 8 11 1012.4 1008.0 0.0
20/04:30am 25.2 25.0 18.6 67 4.3 W 17 24 9 13 1012.5 1008.1 0.0
20/04:00am 25.8 25.3 18.7 65 4.6 WSW 19 24 10 13 1012.1 1007.7 0.0
20/03:30am 25.8 24.2 19.2 67 4.3 W 26 39 14 21 1011.7 1007.3 0.0
20/03:11am 27.4 24.7 17.6 55 6.3 WSW 28 37 15 20 1011.5 1007.1 0.0
20/03:00am 29.4 27.9 11.9 34 10.4 WNW 11 17 6 9 1011.1 1006.8 0.0
20/02:30am 29.7 29.1 12.2 34 10.5 N 7 11 4 6 1010.5 1006.1 0.0
20/02:00am 28.1 28.6 14.0 42 8.6 N 4 9 2 5 1010.3 1005.9 0.0
20/01:30am 29.0 28.7 13.2 37 9.6 E 7 9 4 5 1009.9 1005.5 0.0
20/01:00am 28.4 27.9 13.9 41 8.9 NNE 9 13 5 7 1010.3 1005.9 0.0
20/12:30am 28.9 28.6 13.2 38 9.5 ENE 7 9 4 5 1010.2 1005.8 0.0
20/12:00am 29.9 29.1 12.8 35 10.3 E 9 13 5 7 1010.3 1005.9 0.0
 
Date/Time
WST
Temp
°C
App
Temp
°C
Dew
Point
°C
Rel
Hum
%
Delta-T
°C
Wind Press
QNH
hPa
Press
MSL
hPa
Rain since
9am
mm
Dir  Spd
km/h
Gust
km/h
Spd
kts
Gust
kts
19/11:30pm 30.5 29.5 12.4 33 10.9 ESE 9 15 5 8 1010.0 1005.6 0.0
19/11:00pm 30.2 29.2 13.5 36 10.2 ESE 11 17 6 9 1010.1 1005.7 0.0
19/10:30pm 30.1 30.0 15.0 40 9.4 SE 9 11 5 6 1010.3 1005.9 0.0
19/10:00pm 30.7 32.3 14.8 38 9.9 CALM 0 0 0 0 1010.3 1005.9 0.0
19/09:30pm 31.5 32.8 14.2 35 10.7 CALM 0 0 0 0 1010.3 1005.9 0.0
19/09:00pm 31.7 32.6 13.9 34 11.0 SE 2 6 1 3 1010.0 1005.6 0.0
19/08:30pm 33.7 33.2 12.1 27 13.1 NNE 6 7 3 4 1009.6 1005.2 0.0
19/08:00pm 33.0 33.0 13.6 31 12.0 E 6 9 3 5 1009.3 1004.9 0.0
19/07:30pm 33.5 33.0 12.5 28 12.8 S 7 11 4 6 1008.6 1004.2 0.0
19/07:00pm 35.2 33.8 10.9 23 14.6 E 9 11 5 6 1008.3 1003.9 0.0
19/06:30pm 35.5 34.6 11.2 23 14.6 ESE 7 11 4 6 1008.2 1003.8 0.0
19/06:00pm 36.6 35.1 10.7 21 15.6 ESE 9 15 5 8 1008.0 1003.6 0.0

Other formats

Comma delimited format used in spreadsheet applications
http://www.bom.gov.au/fwo/IDW60801/IDW60801.94317.axf

JavaScript Object Notation format (JSON) in row-major order
http://www.bom.gov.au/fwo/IDW60801/IDW60801.94317.json

Data quality

Most of these data are generated automatically and are frequently updated. Quality checks on data are not normally performed. It is possible for incorrect values to appear. Refer to information at About Latest Weather Observations and please check the disclaimer before using these data.